Time;durP1;ratioP1;P1;durP2;ratioP2;P2;SDS_P1;SDS_P2;PMS_P1;PMS_P2;Temp;Humidity;BMP_temperature;BMP_pressure;BME280_temperature;BME280_humidity;BME280_pressure;Samples;Min_cycle;Max_cycle;Signal;HPM_P1;HPM_P2
2024/01/28 00:00:46;;;;;;;8.43;2.23;;;;;;;;;;5037317;28;20241;-76
2024/01/28 00:03:12;;;;;;;10.50;2.90;;;;;;;;;;5034723;28;20272;-75
2024/01/28 00:05:38;;;;;;;10.17;2.83;;;;;;;;;;5031172;28;20188;-75
2024/01/28 00:08:07;;;;;;;11.37;2.70;;;;;;;;;;5033230;28;20220;-75
2024/01/28 00:10:33;;;;;;;9.07;2.80;;;;;;;;;;5035153;28;20215;-73
2024/01/28 00:12:59;;;;;;;8.90;2.90;;;;;;;;;;5035546;28;20617;-72
2024/01/28 00:15:25;;;;;;;10.63;2.90;;;;;;;;;;5039901;28;20212;-71
2024/01/28 00:17:55;;;;;;;9.93;3.00;;;;;;;;;;5027108;28;20274;-73
2024/01/28 00:20:21;;;;;;;9.57;2.90;;;;;;;;;;5035540;28;20212;-73
2024/01/28 00:22:48;;;;;;;11.93;3.50;;;;;;;;;;5032866;28;20720;-72
2024/01/28 00:25:14;;;;;;;10.67;2.43;;;;;;;;;;5032533;28;20299;-73
2024/01/28 00:27:40;;;;;;;11.33;2.70;;;;;;;;;;5038754;28;20326;-73
2024/01/28 00:30:08;;;;;;;7.87;3.40;;;;;;;;;;5033922;28;20627;-73
2024/01/28 00:32:35;;;;;;;8.23;2.63;;;;;;;;;;5035584;28;20219;-75
2024/01/28 00:35:00;;;;;;;10.33;3.20;;;;;;;;;;5038218;28;20219;-75
2024/01/28 00:37:26;;;;;;;11.73;2.43;;;;;;;;;;5033048;28;20203;-73
2024/01/28 00:39:52;;;;;;;8.67;3.10;;;;;;;;;;5037552;28;20227;-74
2024/01/28 00:42:18;;;;;;;6.43;2.60;;;;;;;;;;5032195;28;20258;-74
2024/01/28 00:44:45;;;;;;;7.20;2.27;;;;;;;;;;5032824;28;20200;-75
2024/01/28 00:47:10;;;;;;;8.83;2.90;;;;;;;;;;5034849;28;20208;-76
2024/01/28 00:49:36;;;;;;;12.63;2.70;;;;;;;;;;5029260;28;20215;-75
2024/01/28 00:52:03;;;;;;;14.73;3.30;;;;;;;;;;5029119;28;20207;-75
2024/01/28 00:54:28;;;;;;;11.87;2.03;;;;;;;;;;5032251;28;20739;-72
2024/01/28 00:56:56;;;;;;;10.13;2.70;;;;;;;;;;5033680;28;20172;-74
2024/01/28 00:59:22;;;;;;;6.63;2.83;;;;;;;;;;5030503;28;20299;-74
2024/01/28 01:01:49;;;;;;;11.93;3.80;;;;;;;;;;5032161;28;20216;-75
2024/01/28 01:04:15;;;;;;;8.80;2.70;;;;;;;;;;5031799;28;20219;-75
2024/01/28 01:06:44;;;;;;;13.47;3.37;;;;;;;;;;5029005;28;20254;-75
2024/01/28 01:09:11;;;;;;;9.23;3.20;;;;;;;;;;5033337;28;20269;-73
2024/01/28 01:11:37;;;;;;;7.20;3.23;;;;;;;;;;5032768;28;20184;-72
2024/01/28 01:14:04;;;;;;;11.87;3.27;;;;;;;;;;5033079;28;20362;-70
2024/01/28 01:16:30;;;;;;;11.47;3.37;;;;;;;;;;5035316;28;20656;-71
2024/01/28 01:18:56;;;;;;;5.77;2.77;;;;;;;;;;5035854;28;20310;-72
2024/01/28 01:21:22;;;;;;;8.67;3.10;;;;;;;;;;5033676;28;20266;-72
2024/01/28 01:23:47;;;;;;;13.23;2.90;;;;;;;;;;5027248;28;20291;-72
2024/01/28 01:26:13;;;;;;;6.67;2.70;;;;;;;;;;5034156;28;20685;-72
2024/01/28 01:28:39;;;;;;;7.30;3.40;;;;;;;;;;5034937;28;20220;-71
2024/01/28 01:31:05;;;;;;;10.57;2.97;;;;;;;;;;5032568;28;20223;-72
2024/01/28 01:33:32;;;;;;;6.20;3.07;;;;;;;;;;5036643;28;20613;-71
2024/01/28 01:35:58;;;;;;;5.73;2.73;;;;;;;;;;5030213;28;20180;-71
2024/01/28 01:38:24;;;;;;;10.40;3.27;;;;;;;;;;5036531;28;20220;-71
2024/01/28 01:40:50;;;;;;;11.40;3.57;;;;;;;;;;5035190;28;20604;-71
2024/01/28 01:43:16;;;;;;;11.80;2.83;;;;;;;;;;5033252;28;20295;-73
2024/01/28 01:45:42;;;;;;;7.30;2.43;;;;;;;;;;5033219;28;20358;-72
2024/01/28 01:48:10;;;;;;;12.90;2.70;;;;;;;;;;5036267;28;20207;-71
2024/01/28 01:50:36;;;;;;;8.07;2.70;;;;;;;;;;5030495;28;20259;-72
2024/01/28 01:53:04;;;;;;;8.10;2.53;;;;;;;;;;5033682;28;20218;-71
2024/01/28 01:55:30;;;;;;;11.37;2.90;;;;;;;;;;5023579;28;20211;-72
2024/01/28 01:57:56;;;;;;;10.80;2.70;;;;;;;;;;5033413;28;20221;-72
2024/01/28 02:00:22;;;;;;;8.43;3.00;;;;;;;;;;5030462;28;20192;-70
2024/01/28 02:02:49;;;;;;;9.80;2.83;;;;;;;;;;5034689;28;20578;-71
2024/01/28 02:05:15;;;;;;;10.43;2.97;;;;;;;;;;5038998;28;20207;-73
2024/01/28 02:07:42;;;;;;;15.87;3.03;;;;;;;;;;5039056;28;20663;-72
2024/01/28 02:10:09;;;;;;;11.23;3.37;;;;;;;;;;5035053;28;20290;-72
2024/01/28 02:12:36;;;;;;;8.67;3.00;;;;;;;;;;5034278;28;20670;-73
2024/01/28 02:15:05;;;;;;;12.33;2.73;;;;;;;;;;5032638;28;20207;-73
2024/01/28 02:17:31;;;;;;;6.97;2.10;;;;;;;;;;5030738;28;20223;-72
2024/01/28 02:19:57;;;;;;;10.50;3.33;;;;;;;;;;5036409;28;20314;-70
2024/01/28 02:22:23;;;;;;;8.43;2.60;;;;;;;;;;5035909;28;20294;-72
2024/01/28 02:24:51;;;;;;;7.40;2.60;;;;;;;;;;5028713;28;20653;-73
2024/01/28 02:27:17;;;;;;;7.70;2.53;;;;;;;;;;5038523;28;20234;-73
2024/01/28 02:29:43;;;;;;;8.83;2.70;;;;;;;;;;5031170;28;20788;-73
2024/01/28 02:32:12;;;;;;;9.37;2.43;;;;;;;;;;5036600;28;20817;-73
2024/01/28 02:34:38;;;;;;;10.83;2.73;;;;;;;;;;5034258;28;20204;-72
2024/01/28 02:37:04;;;;;;;10.03;3.33;;;;;;;;;;5036530;28;20211;-72
2024/01/28 02:39:30;;;;;;;6.53;2.87;;;;;;;;;;5025630;28;20772;-72
2024/01/28 02:41:56;;;;;;;6.73;2.53;;;;;;;;;;5026990;28;20184;-72
2024/01/28 02:44:22;;;;;;;13.67;2.90;;;;;;;;;;5029646;28;20580;-71
2024/01/28 02:46:48;;;;;;;14.43;3.33;;;;;;;;;;5028229;28;20377;-71
2024/01/28 02:49:14;;;;;;;12.07;2.67;;;;;;;;;;5029168;28;20222;-73
2024/01/28 02:51:45;;;;;;;14.37;3.10;;;;;;;;;;5030946;28;20212;-72
2024/01/28 02:54:11;;;;;;;10.10;2.97;;;;;;;;;;5022133;28;20727;-73
2024/01/28 02:56:37;;;;;;;9.27;2.87;;;;;;;;;;5031219;28;20168;-73
2024/01/28 02:59:03;;;;;;;11.93;3.13;;;;;;;;;;5028368;28;20220;-72
2024/01/28 03:01:29;;;;;;;12.87;3.40;;;;;;;;;;5023926;28;20208;-70
2024/01/28 03:03:55;;;;;;;7.07;3.10;;;;;;;;;;5026961;28;20215;-73
2024/01/28 03:06:21;;;;;;;8.10;2.77;;;;;;;;;;5028125;28;20199;-73
2024/01/28 03:08:47;;;;;;;9.23;2.73;;;;;;;;;;5035838;28;20213;-72
2024/01/28 03:11:13;;;;;;;9.03;2.73;;;;;;;;;;5053682;28;20245;-73
2024/01/28 03:13:39;;;;;;;8.10;2.80;;;;;;;;;;5063793;28;20249;-72
2024/01/28 03:16:05;;;;;;;10.13;3.77;;;;;;;;;;5077588;28;20436;-73
2024/01/28 03:18:31;;;;;;;5.87;2.50;;;;;;;;;;5073206;28;20232;-72
2024/01/28 03:20:57;;;;;;;14.03;2.43;;;;;;;;;;5056140;28;20181;-72
2024/01/28 03:23:23;;;;;;;7.87;2.67;;;;;;;;;;5075453;28;20215;-70
2024/01/28 03:25:49;;;;;;;8.93;2.90;;;;;;;;;;5055459;28;20224;-73
2024/01/28 03:28:15;;;;;;;11.00;2.23;;;;;;;;;;5073929;28;20223;-72
2024/01/28 03:30:41;;;;;;;7.57;2.70;;;;;;;;;;5077028;28;20211;-73
2024/01/28 03:33:07;;;;;;;7.30;2.53;;;;;;;;;;5074213;28;20185;-71
2024/01/28 03:35:33;;;;;;;13.90;2.60;;;;;;;;;;5073738;28;20213;-72
2024/01/28 03:38:00;;;;;;;11.87;3.13;;;;;;;;;;5057083;28;20275;-72
2024/01/28 03:40:26;;;;;;;12.23;3.77;;;;;;;;;;5054097;28;20206;-72
2024/01/28 03:42:52;;;;;;;10.77;3.10;;;;;;;;;;5076748;28;20571;-73
2024/01/28 03:45:18;;;;;;;12.00;3.57;;;;;;;;;;5072632;28;20714;-72
2024/01/28 03:47:44;;;;;;;8.00;3.07;;;;;;;;;;5052352;28;20189;-72
2024/01/28 03:50:10;;;;;;;8.47;2.90;;;;;;;;;;5074981;28;20222;-72
2024/01/28 03:52:37;;;;;;;10.87;3.10;;;;;;;;;;5075880;28;20217;-72
2024/01/28 03:55:03;;;;;;;10.57;3.30;;;;;;;;;;5074236;28;20212;-72
2024/01/28 03:57:29;;;;;;;9.87;2.77;;;;;;;;;;5073100;28;20214;-72
2024/01/28 03:59:55;;;;;;;9.83;3.30;;;;;;;;;;5072501;28;20215;-72
2024/01/28 04:02:21;;;;;;;7.27;2.70;;;;;;;;;;5074695;28;20207;-73
2024/01/28 04:04:47;;;;;;;8.40;3.30;;;;;;;;;;5074027;28;20206;-72
2024/01/28 04:07:13;;;;;;;8.90;3.20;;;;;;;;;;5071502;28;20207;-72
2024/01/28 04:09:39;;;;;;;13.23;2.87;;;;;;;;;;5074771;28;20243;-73
2024/01/28 04:12:05;;;;;;;15.00;2.67;;;;;;;;;;5072137;28;20250;-72
2024/01/28 04:14:31;;;;;;;8.80;2.70;;;;;;;;;;5069524;28;20212;-72
2024/01/28 04:16:57;;;;;;;11.03;3.40;;;;;;;;;;5052781;28;20220;-72
2024/01/28 04:19:23;;;;;;;13.40;3.03;;;;;;;;;;5070905;28;20209;-71
2024/01/28 04:21:49;;;;;;;8.00;2.40;;;;;;;;;;5074038;28;20953;-71
2024/01/28 04:24:15;;;;;;;9.17;2.47;;;;;;;;;;5070852;28;20202;-72
2024/01/28 04:26:41;;;;;;;9.37;3.00;;;;;;;;;;5072982;28;20174;-72
2024/01/28 04:29:07;;;;;;;7.63;3.20;;;;;;;;;;5072224;28;20209;-72
2024/01/28 04:31:33;;;;;;;7.27;3.23;;;;;;;;;;5071080;28;20236;-72
2024/01/28 04:33:59;;;;;;;16.27;3.10;;;;;;;;;;5072361;28;20222;-72
2024/01/28 04:36:26;;;;;;;7.30;2.87;;;;;;;;;;5071624;28;20182;-72
2024/01/28 04:38:52;;;;;;;11.53;3.87;;;;;;;;;;5070399;28;20267;-73
2024/01/28 04:41:18;;;;;;;7.23;2.80;;;;;;;;;;5073703;28;20276;-72
2024/01/28 04:43:44;;;;;;;9.40;2.53;;;;;;;;;;5073341;28;20753;-72
2024/01/28 04:46:14;;;;;;;7.90;2.43;;;;;;;;;;5069077;28;20212;-72
2024/01/28 04:48:41;;;;;;;12.23;2.57;;;;;;;;;;5071913;28;20245;-72
2024/01/28 04:51:07;;;;;;;7.70;2.63;;;;;;;;;;5074656;28;20190;-72
2024/01/28 04:53:33;;;;;;;9.17;2.60;;;;;;;;;;5074891;28;20208;-73
2024/01/28 04:56:00;;;;;;;11.37;2.70;;;;;;;;;;5051284;28;20215;-72
2024/01/28 04:58:26;;;;;;;12.13;2.90;;;;;;;;;;5068669;28;20292;-73
2024/01/28 05:00:52;;;;;;;7.38;2.70;;;;;;;;;;5077278;28;20958;-72
2024/01/28 05:03:18;;;;;;;11.50;3.17;;;;;;;;;;5077041;28;20174;-72
2024/01/28 05:05:44;;;;;;;8.37;3.00;;;;;;;;;;5053355;28;20179;-73
2024/01/28 05:08:09;;;;;;;14.70;3.03;;;;;;;;;;5080363;28;20208;-72
2024/01/28 05:10:35;;;;;;;6.33;2.73;;;;;;;;;;5075650;28;20222;-72
2024/01/28 05:13:02;;;;;;;6.30;2.97;;;;;;;;;;5074574;28;20850;-72
2024/01/28 05:15:28;;;;;;;10.63;2.70;;;;;;;;;;5070223;28;20684;-72
2024/01/28 05:17:54;;;;;;;14.10;4.00;;;;;;;;;;5053216;28;20185;-71
2024/01/28 05:20:20;;;;;;;10.50;3.20;;;;;;;;;;5078681;28;20229;-71
2024/01/28 05:22:46;;;;;;;8.43;3.00;;;;;;;;;;5072578;28;20299;-71
2024/01/28 05:25:13;;;;;;;10.43;3.10;;;;;;;;;;5071107;28;20236;-73
2024/01/28 05:27:39;;;;;;;5.87;2.67;;;;;;;;;;5071727;28;20213;-72
2024/01/28 05:30:06;;;;;;;7.43;2.87;;;;;;;;;;5073062;28;20212;-72
2024/01/28 05:32:33;;;;;;;7.47;2.77;;;;;;;;;;5075128;28;20564;-72
2024/01/28 05:35:03;;;;;;;5.73;2.40;;;;;;;;;;5071158;28;20217;-71
2024/01/28 05:37:29;;;;;;;9.13;2.70;;;;;;;;;;5073230;28;20259;-71
2024/01/28 05:39:55;;;;;;;10.03;3.07;;;;;;;;;;5070648;28;20367;-72
2024/01/28 05:42:21;;;;;;;8.20;3.00;;;;;;;;;;5074534;28;20238;-70
2024/01/28 05:44:47;;;;;;;6.50;2.03;;;;;;;;;;5076405;28;20685;-71
2024/01/28 05:47:13;;;;;;;13.60;3.30;;;;;;;;;;5075210;28;20218;-72
2024/01/28 05:49:40;;;;;;;11.40;2.67;;;;;;;;;;5048701;28;20362;-71
2024/01/28 05:52:06;;;;;;;7.37;2.47;;;;;;;;;;5077949;28;20214;-72
2024/01/28 05:54:32;;;;;;;8.00;2.50;;;;;;;;;;5067912;28;20219;-71
2024/01/28 05:56:59;;;;;;;7.60;2.43;;;;;;;;;;5068401;28;20187;-71
2024/01/28 05:59:25;;;;;;;7.53;2.83;;;;;;;;;;5069047;28;20205;-72
2024/01/28 06:01:51;;;;;;;9.93;2.73;;;;;;;;;;5068615;28;20206;-73
2024/01/28 06:04:17;;;;;;;9.67;2.87;;;;;;;;;;5069299;28;20211;-72
2024/01/28 06:06:43;;;;;;;4.50;2.20;;;;;;;;;;5074116;28;20216;-72
2024/01/28 06:09:10;;;;;;;10.73;3.10;;;;;;;;;;5073494;28;20199;-72
2024/01/28 06:11:36;;;;;;;8.37;2.80;;;;;;;;;;5078990;28;20182;-73
2024/01/28 06:14:02;;;;;;;4.90;2.60;;;;;;;;;;5053725;28;20215;-71
2024/01/28 06:16:29;;;;;;;9.50;2.30;;;;;;;;;;5058876;28;20222;-71
2024/01/28 06:18:56;;;;;;;11.03;2.97;;;;;;;;;;5074013;28;20699;-72
2024/01/28 06:21:22;;;;;;;11.10;2.80;;;;;;;;;;5075804;28;20183;-72
2024/01/28 06:23:48;;;;;;;14.90;2.57;;;;;;;;;;5077326;28;20853;-70
2024/01/28 06:26:16;;;;;;;11.07;2.97;;;;;;;;;;5074655;28;20207;-72
2024/01/28 06:28:42;;;;;;;7.90;3.17;;;;;;;;;;5054032;28;20584;-72
2024/01/28 06:31:08;;;;;;;8.07;2.83;;;;;;;;;;5068288;28;20211;-72
2024/01/28 06:33:35;;;;;;;7.43;2.73;;;;;;;;;;5075014;28;20272;-73
2024/01/28 06:36:01;;;;;;;7.00;2.67;;;;;;;;;;5071491;28;20204;-73
2024/01/28 06:38:27;;;;;;;9.60;3.47;;;;;;;;;;5056922;28;20700;-72
2024/01/28 06:40:55;;;;;;;8.53;2.80;;;;;;;;;;5071532;28;20210;-72
2024/01/28 06:43:22;;;;;;;7.80;2.93;;;;;;;;;;5071052;28;20216;-72
2024/01/28 06:45:48;;;;;;;8.80;2.67;;;;;;;;;;5072477;28;20220;-72
2024/01/28 06:48:14;;;;;;;9.10;3.00;;;;;;;;;;5064749;28;20187;-73
2024/01/28 06:50:40;;;;;;;11.70;2.97;;;;;;;;;;5058513;28;20180;-72
2024/01/28 06:53:06;;;;;;;9.83;3.00;;;;;;;;;;5071579;28;20288;-72
2024/01/28 06:55:32;;;;;;;11.00;2.87;;;;;;;;;;5071415;28;20208;-73
2024/01/28 06:58:00;;;;;;;6.93;3.83;;;;;;;;;;5071019;28;20322;-72
2024/01/28 07:00:26;;;;;;;13.13;4.57;;;;;;;;;;5059548;28;20374;-73
2024/01/28 07:02:53;;;;;;;11.33;3.00;;;;;;;;;;5074134;28;20175;-72
2024/01/28 07:05:20;;;;;;;6.93;3.07;;;;;;;;;;5055068;28;20211;-72
2024/01/28 07:07:46;;;;;;;9.93;3.23;;;;;;;;;;5077361;28;20595;-72
2024/01/28 07:10:12;;;;;;;9.63;3.40;;;;;;;;;;5070570;28;20228;-72
2024/01/28 07:12:39;;;;;;;12.43;3.60;;;;;;;;;;5073688;28;20219;-73
2024/01/28 07:15:05;;;;;;;7.83;3.23;;;;;;;;;;5071736;28;20295;-73
2024/01/28 07:17:32;;;;;;;8.33;3.10;;;;;;;;;;5073747;28;20248;-72
2024/01/28 07:19:58;;;;;;;8.57;3.90;;;;;;;;;;5073074;28;20645;-70
2024/01/28 07:22:24;;;;;;;8.87;3.30;;;;;;;;;;5075723;28;20363;-72
2024/01/28 07:24:50;;;;;;;13.83;4.03;;;;;;;;;;5075445;28;20315;-73
2024/01/28 07:27:16;;;;;;;8.00;3.73;;;;;;;;;;5070112;28;20240;-73
2024/01/28 07:29:43;;;;;;;7.80;3.50;;;;;;;;;;5073981;28;20262;-72
2024/01/28 07:32:13;;;;;;;10.47;4.37;;;;;;;;;;5072579;28;20278;-72
2024/01/28 07:34:42;;;;;;;16.63;4.03;;;;;;;;;;5074904;28;20818;-72
2024/01/28 07:37:08;;;;;;;14.57;3.47;;;;;;;;;;5071288;28;20287;-72
2024/01/28 07:39:34;;;;;;;10.77;3.73;;;;;;;;;;5076060;28;20828;-73
2024/01/28 07:42:00;;;;;;;8.93;4.27;;;;;;;;;;5070319;28;20258;-72
2024/01/28 07:44:26;;;;;;;11.97;4.87;;;;;;;;;;5073430;28;20573;-74
2024/01/28 07:46:53;;;;;;;6.60;3.87;;;;;;;;;;5070283;28;20301;-74
2024/01/28 07:49:20;;;;;;;8.83;4.13;;;;;;;;;;5071090;28;20211;-73
2024/01/28 07:51:46;;;;;;;10.90;4.00;;;;;;;;;;5073895;28;20286;-73
2024/01/28 07:54:12;;;;;;;10.57;4.67;;;;;;;;;;5053204;28;20293;-73
2024/01/28 07:56:38;;;;;;;10.77;3.63;;;;;;;;;;5076413;28;20233;-72
2024/01/28 07:59:04;;;;;;;8.53;3.57;;;;;;;;;;5071787;28;20223;-73
2024/01/28 08:01:32;;;;;;;8.83;4.03;;;;;;;;;;5056285;28;20712;-72
2024/01/28 08:03:58;;;;;;;11.93;3.97;;;;;;;;;;5057571;28;20292;-70
2024/01/28 08:06:24;;;;;;;5.77;3.10;;;;;;;;;;5075410;28;20207;-73
2024/01/28 08:08:50;;;;;;;7.50;3.40;;;;;;;;;;5066341;28;20191;-72
2024/01/28 08:11:16;;;;;;;8.80;3.73;;;;;;;;;;5057699;28;20360;-72
2024/01/28 08:13:42;;;;;;;6.60;3.80;;;;;;;;;;5074530;28;20259;-73
2024/01/28 08:16:08;;;;;;;9.63;3.63;;;;;;;;;;5055765;28;20559;-73
2024/01/28 08:18:34;;;;;;;12.60;3.93;;;;;;;;;;5075950;28;20230;-74
2024/01/28 08:21:00;;;;;;;8.73;3.30;;;;;;;;;;5072641;28;20179;-73
2024/01/28 08:23:26;;;;;;;11.17;4.53;;;;;;;;;;5079160;28;20207;-74
2024/01/28 08:25:55;;;;;;;10.43;4.10;;;;;;;;;;5075738;28;20226;-73
2024/01/28 08:28:22;;;;;;;5.97;3.37;;;;;;;;;;5073726;28;20215;-73
2024/01/28 08:30:48;;;;;;;10.40;4.03;;;;;;;;;;5076576;28;20218;-72
2024/01/28 08:33:14;;;;;;;10.73;3.63;;;;;;;;;;5074828;28;20240;-73
2024/01/28 08:35:40;;;;;;;7.93;3.80;;;;;;;;;;5071585;28;20228;-72
2024/01/28 08:38:06;;;;;;;7.47;3.27;;;;;;;;;;5075399;28;20220;-72
2024/01/28 08:40:32;;;;;;;12.73;3.90;;;;;;;;;;5074388;28;20293;-73
2024/01/28 08:42:58;;;;;;;9.03;3.23;;;;;;;;;;5076762;28;20213;-73
2024/01/28 08:45:24;;;;;;;11.93;4.27;;;;;;;;;;5072501;28;20198;-75
2024/01/28 08:47:50;;;;;;;9.70;4.20;;;;;;;;;;5074322;28;20387;-71
2024/01/28 08:50:16;;;;;;;10.43;4.43;;;;;;;;;;5070090;28;20217;-73
2024/01/28 08:52:43;;;;;;;6.67;3.50;;;;;;;;;;5076165;28;20206;-73
2024/01/28 08:55:09;;;;;;;8.20;3.50;;;;;;;;;;5070629;28;20739;-72
2024/01/28 08:57:35;;;;;;;8.77;4.20;;;;;;;;;;5058537;28;20288;-73
2024/01/28 09:00:04;;;;;;;10.73;3.90;;;;;;;;;;5075683;28;20689;-72
2024/01/28 09:02:35;;;;;;;14.63;4.10;;;;;;;;;;5076166;28;20214;-73
2024/01/28 09:05:01;;;;;;;11.77;3.80;;;;;;;;;;5080941;28;20207;-72
2024/01/28 09:07:28;;;;;;;8.93;3.87;;;;;;;;;;5056101;28;20218;-73
2024/01/28 09:09:54;;;;;;;10.83;3.53;;;;;;;;;;5077485;28;20213;-71
2024/01/28 09:12:20;;;;;;;12.47;3.83;;;;;;;;;;5076177;28;20210;-71
2024/01/28 09:14:46;;;;;;;5.90;3.00;;;;;;;;;;5080733;28;20198;-72
2024/01/28 09:17:12;;;;;;;9.43;3.80;;;;;;;;;;5075681;28;20816;-71
2024/01/28 09:19:38;;;;;;;11.80;3.83;;;;;;;;;;5047041;28;20277;-72
2024/01/28 09:22:05;;;;;;;7.47;3.73;;;;;;;;;;5074735;28;20228;-71
2024/01/28 09:24:32;;;;;;;10.30;3.90;;;;;;;;;;5077622;28;20306;-72
2024/01/28 09:26:58;;;;;;;11.70;4.43;;;;;;;;;;5076110;28;20266;-71
2024/01/28 09:29:26;;;;;;;8.07;3.50;;;;;;;;;;5078009;28;20206;-72
2024/01/28 09:31:52;;;;;;;8.60;2.93;;;;;;;;;;5073265;28;20729;-72
2024/01/28 09:34:18;;;;;;;12.27;3.60;;;;;;;;;;5075989;28;20211;-71
2024/01/28 09:36:44;;;;;;;10.03;3.87;;;;;;;;;;5073105;28;20685;-72
2024/01/28 09:39:11;;;;;;;9.00;3.43;;;;;;;;;;5077765;28;20285;-72
2024/01/28 09:41:49;;;;;;;9.00;3.30;;;;;;;;;;5060606;28;20532;-72
2024/01/28 09:44:16;;;;;;;9.73;3.90;;;;;;;;;;5071653;28;20760;-72
2024/01/28 09:46:42;;;;;;;10.27;3.73;;;;;;;;;;5073670;28;20294;-72
2024/01/28 09:49:11;;;;;;;10.67;4.50;;;;;;;;;;5076838;28;20207;-70
2024/01/28 09:51:42;;;;;;;8.77;3.53;;;;;;;;;;5077102;28;20214;-72
2024/01/28 09:54:09;;;;;;;7.83;3.47;;;;;;;;;;5059244;28;20298;-70
2024/01/28 09:56:36;;;;;;;12.30;3.67;;;;;;;;;;5057900;28;20203;-72
2024/01/28 09:59:02;;;;;;;9.47;4.20;;;;;;;;;;5072199;28;20217;-72
2024/01/28 10:01:30;;;;;;;7.93;2.87;;;;;;;;;;5075638;28;20210;-72
2024/01/28 10:04:00;;;;;;;6.80;3.90;;;;;;;;;;5078487;28;20598;-71
2024/01/28 10:06:26;;;;;;;7.40;2.80;;;;;;;;;;5071370;28;20193;-71
2024/01/28 10:08:52;;;;;;;13.77;3.80;;;;;;;;;;5052042;28;20218;-75
2024/01/28 10:11:19;;;;;;;13.20;3.30;;;;;;;;;;5070235;28;20703;-76
2024/01/28 10:13:46;;;;;;;7.27;2.63;;;;;;;;;;5072794;28;20214;-74
2024/01/28 10:16:12;;;;;;;9.13;3.60;;;;;;;;;;5055186;28;20218;-73
2024/01/28 10:18:38;;;;;;;6.57;2.33;;;;;;;;;;5054884;28;20725;-72
2024/01/28 10:21:04;;;;;;;10.00;3.07;;;;;;;;;;5071284;28;20248;-74
2024/01/28 10:23:34;;;;;;;8.10;2.90;;;;;;;;;;5066277;28;20277;-73
2024/01/28 10:26:01;;;;;;;6.03;3.03;;;;;;;;;;5069896;28;20210;-76
2024/01/28 10:28:29;;;;;;;8.77;3.07;;;;;;;;;;5069978;28;20203;-80
2024/01/28 10:30:55;;;;;;;35.00;11.03;;;;;;;;;;5061274;28;20275;-72
2024/01/28 10:33:21;;;;;;;7.27;3.50;;;;;;;;;;5068294;28;20260;-78
2024/01/28 10:35:48;;;;;;;8.40;2.43;;;;;;;;;;5075460;28;20205;-78
2024/01/28 10:38:16;;;;;;;8.50;3.17;;;;;;;;;;5056114;28;20321;-78
2024/01/28 10:40:45;;;;;;;7.07;2.90;;;;;;;;;;5076401;28;20785;-81
2024/01/28 10:43:16;;;;;;;9.37;3.13;;;;;;;;;;5078717;28;20218;-79
2024/01/28 10:45:43;;;;;;;13.83;4.17;;;;;;;;;;5065071;28;20211;-80
2024/01/28 10:48:15;;;;;;;6.23;2.60;;;;;;;;;;5071619;28;20566;-76
2024/01/28 10:50:42;;;;;;;16.17;3.67;;;;;;;;;;5072488;28;20175;-79
2024/01/28 10:53:09;;;;;;;11.73;2.90;;;;;;;;;;5056651;28;20207;-77
2024/01/28 10:55:36;;;;;;;9.50;2.87;;;;;;;;;;5086484;28;20219;-78
2024/01/28 10:58:03;;;;;;;5.13;2.40;;;;;;;;;;5079954;28;20266;-78
2024/01/28 11:00:29;;;;;;;10.07;3.17;;;;;;;;;;5076553;28;20260;-79
2024/01/28 11:02:58;;;;;;;9.43;3.03;;;;;;;;;;5075679;28;20182;-80
2024/01/28 11:05:24;;;;;;;6.13;2.67;;;;;;;;;;5080047;28;20596;-77
2024/01/28 11:07:51;;;;;;;11.00;2.80;;;;;;;;;;5079701;28;20210;-79
2024/01/28 11:10:17;;;;;;;5.87;2.90;;;;;;;;;;5078233;28;20669;-78
2024/01/28 11:12:43;;;;;;;7.33;2.53;;;;;;;;;;5075679;28;20309;-78
2024/01/28 11:15:13;;;;;;;10.53;3.33;;;;;;;;;;5086105;28;20256;-78
2024/01/28 11:17:39;;;;;;;8.77;2.63;;;;;;;;;;5096669;28;20190;-78
2024/01/28 11:20:13;;;;;;;10.80;2.80;;;;;;;;;;5080131;28;20227;-79
2024/01/28 11:22:50;;;;;;;12.13;2.37;;;;;;;;;;5091704;28;20202;-74
2024/01/28 11:25:24;;;;;;;12.03;3.40;;;;;;;;;;5070903;28;20262;-80
2024/01/28 11:27:50;;;;;;;7.87;2.60;;;;;;;;;;5062365;28;20209;-80
2024/01/28 11:30:21;;;;;;;6.50;2.70;;;;;;;;;;5062999;28;20265;-77
2024/01/28 11:32:47;;;;;;;8.57;3.60;;;;;;;;;;5078365;28;20179;-75
2024/01/28 11:35:13;;;;;;;5.77;2.30;;;;;;;;;;5077338;28;20231;-78
2024/01/28 11:38:00;;;;;;;11.77;2.73;;;;;;;;;;5073601;28;20226;-76
2024/01/28 11:40:35;;;;;;;16.23;2.70;;;;;;;;;;5072224;28;20215;-77
2024/01/28 11:43:01;;;;;;;7.73;2.10;;;;;;;;;;5062084;28;20203;-78
2024/01/28 11:45:27;;;;;;;7.40;2.47;;;;;;;;;;5070000;28;20194;-77
2024/01/28 11:47:53;;;;;;;3.70;2.33;;;;;;;;;;5075590;28;20245;-77
2024/01/28 11:50:19;;;;;;;8.87;2.60;;;;;;;;;;5055995;28;20205;-77
2024/01/28 11:52:45;;;;;;;9.80;3.10;;;;;;;;;;5072073;28;20207;-75
2024/01/28 11:55:15;;;;;;;7.30;2.77;;;;;;;;;;5078793;28;20685;-75
2024/01/28 11:57:45;;;;;;;7.60;2.40;;;;;;;;;;5055895;28;20203;-74
2024/01/28 12:00:12;;;;;;;7.37;3.13;;;;;;;;;;5077285;28;20206;-74
2024/01/28 12:02:39;;;;;;;9.00;2.83;;;;;;;;;;5055066;28;20175;-76
2024/01/28 12:05:06;;;;;;;14.57;2.77;;;;;;;;;;5075195;28;20336;-76
2024/01/28 12:07:34;;;;;;;5.10;2.10;;;;;;;;;;5075703;28;20298;-75
2024/01/28 12:10:00;;;;;;;10.63;2.53;;;;;;;;;;5071927;28;20215;-76
2024/01/28 12:12:28;;;;;;;8.60;3.23;;;;;;;;;;5077816;28;20247;-74
2024/01/28 12:14:54;;;;;;;7.10;2.50;;;;;;;;;;5078706;28;20524;-73
2024/01/28 12:17:20;;;;;;;8.73;2.75;;;;;;;;;;5080335;28;20939;-74
2024/01/28 12:19:46;;;;;;;6.63;3.17;;;;;;;;;;5062935;28;20222;-75
2024/01/28 12:22:12;;;;;;;11.20;3.53;;;;;;;;;;5055758;28;20207;-75
2024/01/28 12:24:44;;;;;;;5.80;2.37;;;;;;;;;;5055175;28;20267;-75
2024/01/28 12:27:10;;;;;;;5.33;2.30;;;;;;;;;;5079389;28;20257;-75
2024/01/28 12:29:36;;;;;;;8.07;2.43;;;;;;;;;;5055535;28;20261;-74
2024/01/28 12:32:02;;;;;;;6.83;2.43;;;;;;;;;;5070523;28;20215;-75
2024/01/28 12:34:28;;;;;;;9.07;2.53;;;;;;;;;;5073888;28;20215;-76
2024/01/28 12:36:54;;;;;;;5.63;2.57;;;;;;;;;;5081221;28;20289;-74
2024/01/28 12:39:20;;;;;;;8.43;2.50;;;;;;;;;;5075876;28;20324;-76
2024/01/28 12:41:46;;;;;;;5.40;2.47;;;;;;;;;;5077376;28;20179;-74
2024/01/28 12:44:13;;;;;;;4.60;2.13;;;;;;;;;;5080979;28;20296;-75
2024/01/28 12:46:39;;;;;;;5.27;2.70;;;;;;;;;;5078377;28;20218;-75
2024/01/28 12:49:05;;;;;;;7.97;3.17;;;;;;;;;;5076522;28;20206;-74
2024/01/28 12:51:31;;;;;;;6.13;2.47;;;;;;;;;;5077380;28;20693;-75
2024/01/28 12:53:57;;;;;;;8.27;2.77;;;;;;;;;;5079726;28;20210;-74
2024/01/28 12:56:23;;;;;;;9.27;2.97;;;;;;;;;;5057283;28;20206;-75
2024/01/28 12:58:49;;;;;;;6.67;3.60;;;;;;;;;;5060520;28;20206;-74
2024/01/28 13:01:15;;;;;;;10.03;3.27;;;;;;;;;;5076988;28;20198;-75
2024/01/28 13:03:41;;;;;;;11.67;3.43;;;;;;;;;;5058797;28;20211;-76
2024/01/28 13:06:07;;;;;;;9.53;3.37;;;;;;;;;;5080584;28;20184;-74
2024/01/28 13:08:33;;;;;;;6.47;3.17;;;;;;;;;;5076754;28;20694;-74
2024/01/28 13:11:01;;;;;;;7.77;2.73;;;;;;;;;;5058600;28;20220;-74
2024/01/28 13:13:27;;;;;;;13.27;4.57;;;;;;;;;;5058649;28;20579;-75
2024/01/28 13:15:56;;;;;;;6.50;2.70;;;;;;;;;;5077443;28;20215;-74
2024/01/28 13:18:22;;;;;;;7.20;2.80;;;;;;;;;;5078716;28;20711;-74
2024/01/28 13:20:48;;;;;;;9.63;3.07;;;;;;;;;;5076549;28;20191;-73
2024/01/28 13:23:14;;;;;;;9.63;2.60;;;;;;;;;;5080162;28;20262;-74
2024/01/28 13:25:40;;;;;;;9.53;3.00;;;;;;;;;;5083688;28;20284;-74
2024/01/28 13:28:07;;;;;;;7.60;3.10;;;;;;;;;;5084587;28;20214;-74
2024/01/28 13:30:33;;;;;;;5.67;2.53;;;;;;;;;;5080577;28;20213;-73
2024/01/28 13:32:59;;;;;;;8.43;2.60;;;;;;;;;;5086176;28;20170;-73
2024/01/28 13:35:25;;;;;;;6.33;2.47;;;;;;;;;;5062212;28;20212;-75
2024/01/28 13:37:51;;;;;;;4.73;2.73;;;;;;;;;;5084696;28;20199;-73
2024/01/28 13:40:17;;;;;;;7.73;2.60;;;;;;;;;;5079258;28;20210;-75
2024/01/28 13:42:43;;;;;;;7.30;2.40;;;;;;;;;;5079395;28;20314;-75
2024/01/28 13:45:11;;;;;;;4.00;1.93;;;;;;;;;;5083528;28;20222;-74
2024/01/28 13:47:37;;;;;;;6.60;2.43;;;;;;;;;;5082444;28;20420;-74
2024/01/28 13:50:05;;;;;;;9.23;2.07;;;;;;;;;;5077682;28;20213;-74
2024/01/28 13:52:31;;;;;;;9.50;1.77;;;;;;;;;;5078877;28;20233;-74
2024/01/28 13:54:57;;;;;;;5.77;2.20;;;;;;;;;;5073337;28;20215;-75
2024/01/28 13:57:23;;;;;;;6.23;2.40;;;;;;;;;;5078409;28;20182;-74
2024/01/28 13:59:49;;;;;;;3.97;1.80;;;;;;;;;;5079030;28;20202;-73
2024/01/28 14:02:15;;;;;;;6.57;2.07;;;;;;;;;;5074825;28;20210;-74
2024/01/28 14:04:41;;;;;;;7.73;2.47;;;;;;;;;;5075953;28;20213;-75
2024/01/28 14:07:08;;;;;;;4.77;2.00;;;;;;;;;;5076518;28;20210;-74
2024/01/28 14:09:34;;;;;;;7.03;2.13;;;;;;;;;;5076872;28;20296;-74
2024/01/28 14:12:00;;;;;;;4.93;2.50;;;;;;;;;;5079436;28;20849;-74
2024/01/28 14:14:26;;;;;;;4.87;1.83;;;;;;;;;;5073125;28;20587;-74
2024/01/28 14:16:52;;;;;;;8.40;2.00;;;;;;;;;;5076578;28;20214;-74
2024/01/28 14:19:18;;;;;;;7.50;2.20;;;;;;;;;;5078333;28;20632;-73
2024/01/28 14:21:46;;;;;;;6.30;1.80;;;;;;;;;;5074450;28;20295;-76
2024/01/28 14:24:12;;;;;;;7.53;1.50;;;;;;;;;;5059986;28;20641;-74
2024/01/28 14:26:38;;;;;;;5.83;2.30;;;;;;;;;;5079030;28;20178;-75
2024/01/28 14:29:04;;;;;;;6.70;1.77;;;;;;;;;;5077532;28;20249;-73
2024/01/28 14:31:30;;;;;;;8.73;2.10;;;;;;;;;;5076401;28;20752;-74
2024/01/28 14:33:56;;;;;;;4.33;1.77;;;;;;;;;;5075469;28;20221;-74